Terminal Aerodrome Forecast
Issued by NWS

Home | Current Version | Previous Version | Graphics & Text | Print | Product List | Glossary On
Versions: 1 2 3 4 5 6 7 8 9 10 11 12 13
000
FTUS43 KIWX 150500
TAFSBN
TAF
KSBN 150520Z 1506/1606 34014KT 6SM -SHSN BKN015 OVC025
     FM150800 32012KT P6SM VCSH OVC025
     FM151300 33013G21KT P6SM BKN040
     FM160000 27005KT P6SM FEW060=

USA.gov is the U.S. government's official web portal to all federal, state and local government web resources and services.